createdAt,value
2022-08-11T00:02:37.803Z,2.20
2022-08-11T00:06:40.816Z,2.10
2022-08-11T00:10:43.138Z,2.25
2022-08-11T00:14:46.481Z,1.95
2022-08-11T00:18:51.747Z,2.30
2022-08-11T00:23:01.184Z,2.25
2022-08-11T00:27:04.591Z,2.45
2022-08-11T00:31:09.960Z,2.42
2022-08-11T00:35:55.991Z,2.60
2022-08-11T00:39:44.985Z,3.08
2022-08-11T00:43:56.124Z,2.80
2022-08-11T00:48:07.848Z,2.33
2022-08-11T00:52:40.699Z,2.60
2022-08-11T00:57:37.341Z,2.35
2022-08-11T01:01:38.979Z,2.33
2022-08-11T01:06:05.434Z,2.30
2022-08-11T01:10:47.385Z,2.20
2022-08-11T01:15:20.036Z,2.08
2022-08-11T01:20:45.279Z,2.75
2022-08-11T01:24:19.787Z,2.47
2022-08-11T01:28:24.643Z,2.42
2022-08-11T01:33:15.204Z,2.33
2022-08-11T01:37:38.751Z,2.42
2022-08-11T01:42:08.131Z,2.40
2022-08-11T01:46:33.664Z,2.70
2022-08-11T01:51:22.953Z,2.45
2022-08-11T01:55:57.484Z,2.65
2022-08-11T02:00:09.132Z,2.78
2022-08-11T02:04:35.179Z,2.63
2022-08-11T02:08:44.771Z,2.53
2022-08-11T02:13:07.227Z,2.50
2022-08-11T02:17:33.277Z,2.88
2022-08-11T02:22:13.704Z,2.35
2022-08-11T02:26:26.781Z,3.05
2022-08-11T02:30:35.504Z,2.30
2022-08-11T02:34:59.816Z,2.50
2022-08-11T02:39:15.081Z,2.60
2022-08-11T02:43:19.744Z,2.85
2022-08-11T02:47:38.392Z,3.10
2022-08-11T02:51:53.864Z,2.80
2022-08-11T02:56:22.968Z,2.60
2022-08-11T03:00:27.180Z,2.67
2022-08-11T03:04:49.922Z,2.75
2022-08-11T03:09:14.185Z,2.22
2022-08-11T03:13:45.673Z,2.83
2022-08-11T03:18:27.678Z,4.00
2022-08-11T03:22:33.253Z,3.40
2022-08-11T03:26:54.967Z,3.03
2022-08-11T03:31:09.266Z,3.20
2022-08-11T03:35:19.822Z,3.00
2022-08-11T03:39:33.563Z,2.80
2022-08-11T03:44:28.473Z,2.83
2022-08-11T03:49:02.673Z,3.03
2022-08-11T03:53:28.190Z,2.88
2022-08-11T03:57:44.056Z,4.05
2022-08-11T04:02:23.673Z,4.20
2022-08-11T04:06:54.049Z,3.90
2022-08-11T04:11:23.724Z,3.50
2022-08-11T04:15:50.359Z,2.80
2022-08-11T04:20:02.142Z,3.42
2022-08-11T04:24:35.990Z,3.38
2022-08-11T04:28:50.356Z,4.53
2022-08-11T04:33:20.856Z,4.80
2022-08-11T04:37:36.527Z,4.82
2022-08-11T04:42:15.020Z,4.38
2022-08-11T04:46:53.952Z,4.50
2022-08-11T04:51:25.407Z,4.28
2022-08-11T04:56:04.880Z,4.28
2022-08-11T05:00:32.515Z,4.30
2022-08-11T05:05:30.108Z,3.90
2022-08-11T05:09:48.203Z,3.90
2022-08-11T05:14:23.933Z,2.88
2022-08-11T05:18:48.105Z,4.07
2022-08-11T05:23:10.633Z,4.38
2022-08-11T05:27:34.181Z,4.15
2022-08-11T05:31:57.789Z,2.92
2022-08-11T05:36:38.951Z,3.05
2022-08-11T05:41:07.268Z,2.95
2022-08-11T05:46:03.072Z,2.97
2022-08-11T05:50:15.498Z,3.50
2022-08-11T05:54:37.999Z,3.80
2022-08-11T05:58:43.701Z,3.03
2022-08-11T06:02:57.750Z,3.45
2022-08-11T06:07:01.378Z,2.75
2022-08-11T06:11:05.835Z,2.80
2022-08-11T06:15:11.349Z,2.78
2022-08-11T06:19:14.397Z,2.45
2022-08-11T06:23:19.480Z,2.50
2022-08-11T06:27:27.988Z,3.50
2022-08-11T06:31:31.677Z,3.45
2022-08-11T06:35:54.414Z,3.13
2022-08-11T06:40:09.551Z,3.10
2022-08-11T06:44:14.519Z,3.97
2022-08-11T06:48:22.685Z,4.13
2022-08-11T06:52:39.057Z,3.72
2022-08-11T06:57:28.778Z,4.05
2022-08-11T07:01:57.328Z,3.40
2022-08-11T07:06:13.930Z,3.40
2022-08-11T07:10:46.670Z,3.17
2022-08-11T07:15:12.388Z,3.15
2022-08-11T07:19:36.479Z,3.00
2022-08-11T07:23:57.640Z,2.65
2022-08-11T07:28:25.704Z,2.50
2022-08-11T07:32:41.298Z,2.70
2022-08-11T07:36:56.844Z,2.28
2022-08-11T07:41:00.068Z,2.72
2022-08-11T07:45:24.177Z,3.33
2022-08-11T07:49:45.927Z,2.35
2022-08-11T07:53:58.392Z,3.03
2022-08-11T07:58:34.062Z,2.60
2022-08-11T08:03:06.356Z,3.15
2022-08-11T08:07:27.105Z,2.67
2022-08-11T08:11:49.147Z,2.28
2022-08-11T08:16:11.873Z,1.85
2022-08-11T08:20:17.360Z,2.28
2022-08-11T08:24:21.160Z,2.30
2022-08-11T08:28:23.221Z,2.22
2022-08-11T08:32:27.995Z,2.33
2022-08-11T08:36:30.096Z,2.53
2022-08-11T08:40:32.156Z,2.60
2022-08-11T08:44:40.846Z,3.10
2022-08-11T08:48:46.385Z,3.03
2022-08-11T08:53:01.724Z,2.65
2022-08-11T08:57:06.878Z,3.17
2022-08-11T09:01:11.530Z,2.40
2022-08-11T09:05:16.872Z,3.08
2022-08-11T09:09:20.740Z,2.23
2022-08-11T09:13:22.701Z,2.00
2022-08-11T09:17:27.537Z,2.55
2022-08-11T09:21:48.853Z,1.80
2022-08-11T09:26:16.621Z,2.00
2022-08-11T09:30:21.008Z,1.70
2022-08-11T09:34:23.250Z,2.30
2022-08-11T09:38:49.405Z,1.90
2022-08-11T09:43:10.619Z,2.40
2022-08-11T09:47:15.147Z,2.40
2022-08-11T09:51:17.903Z,2.00
2022-08-11T09:55:20.402Z,2.10
2022-08-11T09:59:23.252Z,1.67
2022-08-11T10:03:27.751Z,1.50
2022-08-11T10:07:29.802Z,1.83
2022-08-11T10:11:32.802Z,2.00
2022-08-11T10:15:39.818Z,1.60
2022-08-11T10:20:07.809Z,1.40
2022-08-11T10:24:30.655Z,2.10
2022-08-11T10:28:50.121Z,1.77
2022-08-11T10:33:36.399Z,1.50
2022-08-11T10:38:08.051Z,1.60
2022-08-11T10:42:41.466Z,2.22
2022-08-11T10:47:26.242Z,1.73
2022-08-11T10:51:50.986Z,1.50
2022-08-11T10:56:13.419Z,1.60
2022-08-11T11:00:16.419Z,1.50
2022-08-11T11:04:38.370Z,1.48
2022-08-11T11:08:53.216Z,1.30
2022-08-11T11:13:18.038Z,1.65
2022-08-11T11:17:49.280Z,1.50
2022-08-11T11:21:54.495Z,1.45
2022-08-11T11:26:12.651Z,1.38
2022-08-11T11:30:16.247Z,1.40
2022-08-11T11:34:35.421Z,1.63
2022-08-11T11:38:37.999Z,1.50
2022-08-11T11:42:42.342Z,1.58
2022-08-11T11:46:45.687Z,1.55
2022-08-11T11:50:49.345Z,1.80
2022-08-11T11:54:55.568Z,1.50
2022-08-11T11:59:27.588Z,1.75
2022-08-11T12:03:31.077Z,1.35
2022-08-11T12:07:56.882Z,1.50
2022-08-11T12:12:33.704Z,1.60
2022-08-11T12:16:42.071Z,1.50
2022-08-11T12:20:45.449Z,1.48
2022-08-11T12:25:06.347Z,1.50
2022-08-11T12:29:11.540Z,1.70
2022-08-11T12:33:14.474Z,1.65
2022-08-11T12:37:45.373Z,1.65
2022-08-11T12:42:06.751Z,1.55
2022-08-11T12:46:12.754Z,1.58
2022-08-11T12:50:33.432Z,1.50
2022-08-11T12:54:57.883Z,1.50
2022-08-11T12:59:21.517Z,1.80
2022-08-11T13:03:42.443Z,1.75
2022-08-11T13:07:50.866Z,1.70
2022-08-11T13:12:11.819Z,1.65
2022-08-11T13:16:15.104Z,1.70
2022-08-11T13:20:20.234Z,1.55
2022-08-11T13:24:23.271Z,1.77
2022-08-11T13:28:25.513Z,1.70
2022-08-11T13:32:29.654Z,1.63
2022-08-11T13:36:32.073Z,1.70
2022-08-11T13:40:54.735Z,1.80
2022-08-11T13:44:57.922Z,1.60
2022-08-11T13:49:01.034Z,2.15
2022-08-11T13:53:03.231Z,1.73
2022-08-11T13:57:09.069Z,1.70
2022-08-11T14:02:20.286Z,1.73
2022-08-11T14:05:57.344Z,1.88
2022-08-11T14:10:00.706Z,1.80
2022-08-11T14:14:05.168Z,1.73
2022-08-11T14:18:13.832Z,1.80
2022-08-11T14:22:17.944Z,2.00
2022-08-11T14:26:28.690Z,1.85
2022-08-11T14:30:49.135Z,1.70
2022-08-11T14:34:51.639Z,1.90
2022-08-11T14:38:55.062Z,1.75
2022-08-11T14:43:15.834Z,1.80
2022-08-11T14:47:23.293Z,1.90
2022-08-11T14:51:27.814Z,2.08
2022-08-11T14:55:53.516Z,1.90
2022-08-11T14:59:58.320Z,2.20
2022-08-11T15:04:04.344Z,2.00
2022-08-11T15:08:46.375Z,1.88
2022-08-11T15:12:49.697Z,2.10
2022-08-11T15:17:09.801Z,1.92
2022-08-11T15:21:30.413Z,1.75
2022-08-11T15:25:34.888Z,1.80
2022-08-11T15:30:00.179Z,1.90
2022-08-11T15:34:26.268Z,2.15
2022-08-11T15:38:36.389Z,1.88
2022-08-11T15:43:08.819Z,2.15
2022-08-11T15:47:15.751Z,1.80
2022-08-11T15:51:32.833Z,1.80
2022-08-11T15:55:36.446Z,1.80
2022-08-11T15:59:58.280Z,1.80
2022-08-11T16:04:17.404Z,1.90
2022-08-11T16:08:31.647Z,1.95
2022-08-11T16:13:07.693Z,2.10
2022-08-11T16:17:12.233Z,1.90
2022-08-11T16:21:35.001Z,2.25
2022-08-11T16:27:05.717Z,2.20
2022-08-11T16:30:01.878Z,1.92
2022-08-11T16:34:05.616Z,1.70
2022-08-11T16:38:28.143Z,1.88
2022-08-11T16:43:04.619Z,2.20
2022-08-11T16:47:17.792Z,1.80
2022-08-11T16:51:39.784Z,2.40
2022-08-11T16:55:52.479Z,1.90
2022-08-11T16:59:58.498Z,1.85
2022-08-11T17:04:26.287Z,2.00
2022-08-11T17:08:57.541Z,1.77
2022-08-11T17:13:09.071Z,1.90
2022-08-11T17:17:18.430Z,1.73
2022-08-11T17:21:57.579Z,1.90
2022-08-11T17:26:04.372Z,1.92
2022-08-11T17:30:09.637Z,1.90
2022-08-11T17:34:31.990Z,1.80
2022-08-11T17:38:35.796Z,1.70
2022-08-11T17:42:57.583Z,1.60
2022-08-11T17:47:17.820Z,1.60
2022-08-11T17:51:48.757Z,1.40
2022-08-11T17:56:10.888Z,1.65
2022-08-11T18:00:13.601Z,1.90
2022-08-11T18:04:16.750Z,1.90
2022-08-11T18:08:39.607Z,1.75
2022-08-11T18:13:01.961Z,1.63
2022-08-11T18:17:23.082Z,1.92
2022-08-11T18:21:46.737Z,1.88
2022-08-11T18:26:29.256Z,2.00
2022-08-11T18:31:03.683Z,1.90
2022-08-11T18:35:28.432Z,1.98
2022-08-11T18:39:56.738Z,1.73
2022-08-11T18:48:42.491Z,1.95
2022-08-11T18:53:07.256Z,1.85
2022-08-11T18:57:29.847Z,1.80
2022-08-11T19:01:56.385Z,2.00
2022-08-11T19:06:39.882Z,2.00
2022-08-11T19:11:06.566Z,2.10
2022-08-11T19:15:28.747Z,2.10
2022-08-11T19:19:51.412Z,2.30
2022-08-11T19:24:15.690Z,1.92
2022-08-11T19:28:38.471Z,2.30
2022-08-11T19:32:59.875Z,2.00
2022-08-11T19:37:24.779Z,2.17
2022-08-11T19:41:56.758Z,1.95
2022-08-11T19:46:19.859Z,1.95
2022-08-11T19:50:40.273Z,1.90
2022-08-11T19:55:04.889Z,1.90
2022-08-11T19:59:27.105Z,1.92
2022-08-11T20:03:47.672Z,2.47
2022-08-11T20:08:12.753Z,1.90
2022-08-11T20:12:33.317Z,2.40
2022-08-11T20:16:54.167Z,2.70
2022-08-11T20:21:25.371Z,2.30
2022-08-11T20:26:03.364Z,2.22
2022-08-11T20:30:29.721Z,2.22
2022-08-11T20:34:53.247Z,2.10
2022-08-11T20:39:15.451Z,2.20
2022-08-11T20:44:06.610Z,2.25
2022-08-11T20:48:21.156Z,2.60
2022-08-11T20:52:48.256Z,2.20
2022-08-11T20:57:12.914Z,2.15
2022-08-11T21:01:41.206Z,2.33
2022-08-11T21:06:09.949Z,2.40
2022-08-11T21:10:32.356Z,2.17
2022-08-11T21:14:54.693Z,2.20
2022-08-11T21:20:01.852Z,2.20
2022-08-11T21:24:11.171Z,2.08
2022-08-11T21:28:34.176Z,2.35
2022-08-11T21:32:57.194Z,2.17
2022-08-11T21:37:19.482Z,2.20
2022-08-11T21:41:40.490Z,2.20
2022-08-11T21:46:11.091Z,2.10
2022-08-11T21:50:31.949Z,2.08
2022-08-11T21:54:52.664Z,2.28
2022-08-11T21:59:15.296Z,2.17
2022-08-11T22:03:49.834Z,2.30
2022-08-11T22:08:11.605Z,2.20
2022-08-11T22:12:34.816Z,2.10
2022-08-11T22:16:56.009Z,2.10
2022-08-11T22:22:03.417Z,2.03
2022-08-11T22:26:07.079Z,2.17
2022-08-11T22:30:29.869Z,2.10
2022-08-11T22:34:53.318Z,2.20
2022-08-11T22:39:17.216Z,2.20
2022-08-11T22:43:37.834Z,2.10
2022-08-11T22:48:01.008Z,1.92
2022-08-11T22:52:22.424Z,2.20
2022-08-11T22:56:43.468Z,2.25
2022-08-11T23:01:04.355Z,2.17
2022-08-11T23:05:26.982Z,2.15
2022-08-11T23:09:47.749Z,2.17
2022-08-11T23:14:08.482Z,2.78
2022-08-11T23:18:29.658Z,2.53
2022-08-11T23:22:51.812Z,1.85
2022-08-11T23:27:13.939Z,2.05
2022-08-11T23:31:50.249Z,2.20
2022-08-11T23:36:11.432Z,2.03
2022-08-11T23:40:52.013Z,2.05
2022-08-11T23:45:12.417Z,2.30
2022-08-11T23:49:34.098Z,2.13
2022-08-11T23:53:56.905Z,1.90
2022-08-11T23:58:17.975Z,2.10
